createdAt,value
2023-04-18T00:00:19.135Z,67.30
2023-04-18T00:03:21.860Z,67.60
2023-04-18T00:06:23.641Z,67.70
2023-04-18T00:09:25.587Z,67.80
2023-04-18T00:12:27.822Z,68.00
2023-04-18T00:15:30.168Z,67.60
2023-04-18T00:18:31.734Z,67.30
2023-04-18T00:21:33.405Z,67.40
2023-04-18T00:24:35.022Z,67.50
2023-04-18T00:27:41.065Z,68.00
2023-04-18T00:30:42.728Z,67.50
2023-04-18T00:33:44.388Z,67.70
2023-04-18T00:36:45.989Z,67.60
2023-04-18T00:39:47.652Z,68.00
2023-04-18T00:42:49.204Z,68.00
2023-04-18T00:45:50.827Z,68.00
2023-04-18T00:48:52.552Z,68.00
2023-04-18T00:51:56.387Z,68.30
2023-04-18T00:54:58.038Z,68.10
2023-04-18T00:57:59.692Z,68.20
2023-04-18T01:01:01.293Z,68.00
2023-04-18T01:04:03.052Z,68.50
2023-04-18T01:07:05.305Z,68.60
2023-04-18T01:10:08.027Z,68.70
2023-04-18T01:13:14.115Z,68.70
2023-04-18T01:16:15.756Z,68.70
2023-04-18T01:19:17.456Z,69.00
2023-04-18T01:22:19.726Z,69.20
2023-04-18T01:25:21.346Z,69.40
2023-04-18T01:28:23.013Z,69.40
2023-04-18T01:31:24.822Z,69.50
2023-04-18T01:34:26.408Z,69.50
2023-04-18T01:37:28.001Z,69.90
2023-04-18T01:40:30.156Z,70.20
2023-04-18T01:43:31.759Z,70.70
2023-04-18T01:46:33.593Z,71.00
2023-04-18T01:49:35.149Z,71.40
2023-04-18T01:52:36.709Z,71.80
2023-04-18T01:55:38.295Z,72.30
2023-04-18T01:58:41.533Z,72.70
2023-04-18T02:01:43.294Z,73.10
2023-04-18T02:04:44.912Z,73.60
2023-04-18T02:07:47.613Z,73.70
2023-04-18T02:10:49.255Z,74.10
2023-04-18T02:13:50.843Z,74.10
2023-04-18T02:16:52.497Z,74.20
2023-04-18T02:19:54.130Z,74.30
2023-04-18T02:22:55.752Z,74.70
2023-04-18T02:25:57.338Z,75.10
2023-04-18T02:28:58.986Z,75.30
2023-04-18T02:32:00.664Z,75.60
2023-04-18T02:35:02.441Z,76.00
2023-04-18T02:38:04.074Z,76.20
2023-04-18T02:41:05.741Z,76.20
2023-04-18T02:44:08.622Z,76.60
2023-04-18T02:47:10.279Z,76.60
2023-04-18T02:50:11.947Z,76.80
2023-04-18T02:53:13.500Z,76.60
2023-04-18T02:56:16.989Z,76.70
2023-04-18T02:59:18.613Z,77.00
2023-04-18T03:02:20.872Z,77.00
2023-04-18T03:05:22.728Z,77.10
2023-04-18T03:08:24.463Z,77.30
2023-04-18T03:11:26.074Z,77.10
2023-04-18T03:14:27.680Z,77.30
2023-04-18T03:17:29.408Z,77.30
2023-04-18T03:20:31.720Z,77.70
2023-04-18T03:23:37.362Z,77.50
2023-04-18T03:26:39.848Z,77.90
2023-04-18T03:29:42.435Z,78.30
2023-04-18T03:32:46.877Z,79.30
2023-04-18T03:35:51.587Z,79.70
2023-04-18T03:38:56.885Z,80.00
2023-04-18T03:42:06.360Z,80.10
2023-04-18T03:45:11.319Z,80.60
2023-04-18T03:48:22.445Z,80.60
2023-04-18T03:51:24.886Z,80.70
2023-04-18T03:54:26.772Z,80.50
2023-04-18T03:57:28.918Z,80.50
2023-04-18T04:00:33.692Z,80.60
2023-04-18T04:03:39.032Z,80.60
2023-04-18T04:06:42.070Z,80.60
2023-04-18T04:09:44.009Z,80.80
2023-04-18T04:12:47.536Z,80.90
2023-04-18T04:15:49.321Z,81.30
2023-04-18T04:18:50.863Z,81.40
2023-04-18T04:21:52.571Z,81.60
2023-04-18T04:24:54.185Z,81.80
2023-04-18T04:27:55.836Z,82.10
2023-04-18T04:30:58.093Z,82.30
2023-04-18T04:33:59.756Z,82.20
2023-04-18T04:37:01.568Z,82.40
2023-04-18T04:40:06.534Z,82.60
2023-04-18T04:43:12.821Z,83.00
2023-04-18T04:46:15.425Z,83.40
2023-04-18T04:49:17.231Z,83.50
2023-04-18T04:52:18.935Z,84.00
2023-04-18T04:55:20.873Z,84.80
2023-04-18T04:58:22.633Z,85.00
2023-04-18T05:01:24.391Z,85.40
2023-04-18T05:04:26.216Z,85.70
2023-04-18T05:07:30.600Z,86.10
2023-04-18T05:10:32.654Z,86.20
2023-04-18T05:13:34.258Z,86.30
2023-04-18T05:16:36.371Z,86.40
2023-04-18T05:19:38.093Z,86.50
2023-04-18T05:22:39.692Z,86.40
2023-04-18T05:25:41.395Z,86.40
2023-04-18T05:28:43.013Z,86.10
2023-04-18T05:31:44.679Z,85.70
2023-04-18T05:34:46.854Z,85.00
2023-04-18T05:37:48.626Z,84.60
2023-04-18T05:40:55.579Z,84.30
2023-04-18T05:44:04.851Z,83.80
2023-04-18T05:47:07.177Z,83.30
2023-04-18T05:50:09.207Z,82.70
2023-04-18T05:53:10.954Z,82.40
2023-04-18T05:56:12.557Z,82.30
2023-04-18T05:59:14.201Z,81.70
2023-04-18T06:02:15.958Z,81.20
2023-04-18T06:05:18.061Z,80.60
2023-04-18T06:08:19.827Z,80.20
2023-04-18T06:11:21.494Z,79.30
2023-04-18T06:14:23.189Z,78.30
2023-04-18T06:17:24.817Z,78.20
2023-04-18T06:20:26.676Z,78.30
2023-04-18T06:23:28.299Z,77.20
2023-04-18T06:26:32.005Z,76.90
2023-04-18T06:29:35.047Z,76.40
2023-04-18T06:32:37.976Z,75.90
2023-04-18T06:35:39.662Z,75.90
2023-04-18T06:38:41.748Z,76.00
2023-04-18T06:41:43.366Z,75.60
2023-04-18T06:44:44.955Z,75.40
2023-04-18T06:47:47.692Z,75.20
2023-04-18T06:50:49.388Z,75.20
2023-04-18T06:53:52.906Z,74.80
2023-04-18T06:56:54.633Z,74.80
2023-04-18T06:59:57.312Z,75.40
2023-04-18T07:02:59.085Z,75.50
2023-04-18T07:06:00.957Z,75.20
2023-04-18T07:09:02.895Z,75.40
2023-04-18T07:12:04.754Z,75.50
2023-04-18T07:15:06.853Z,75.10
2023-04-18T07:18:08.676Z,74.90
2023-04-18T07:21:10.372Z,75.00
2023-04-18T07:24:12.591Z,74.80
2023-04-18T07:27:15.188Z,74.30
2023-04-18T07:30:16.853Z,73.80
2023-04-18T07:33:18.482Z,73.50
2023-04-18T07:36:20.175Z,73.30
2023-04-18T07:39:22.063Z,74.00
2023-04-18T07:42:23.716Z,74.00
2023-04-18T07:45:25.690Z,73.90
2023-04-18T07:48:27.363Z,74.30
2023-04-18T07:51:31.675Z,74.10
2023-04-18T07:54:33.379Z,73.70
2023-04-18T07:57:35.056Z,73.70
2023-04-18T08:00:39.086Z,73.50
2023-04-18T08:03:41.775Z,73.60
2023-04-18T08:06:43.556Z,73.80
2023-04-18T08:09:45.806Z,73.70
2023-04-18T08:12:47.424Z,74.10
2023-04-18T08:15:49.042Z,74.10
2023-04-18T08:18:50.688Z,73.80
2023-04-18T08:21:52.296Z,73.90
2023-04-18T08:25:04.401Z,73.40
2023-04-18T08:28:08.491Z,73.50
2023-04-18T08:31:13.411Z,73.00
2023-04-18T08:34:15.214Z,72.80
2023-04-18T08:37:16.888Z,72.20
2023-04-18T08:40:19.177Z,72.30
2023-04-18T08:43:21.047Z,72.80
2023-04-18T08:46:23.114Z,72.40
2023-04-18T08:49:25.119Z,72.00
2023-04-18T08:52:29.448Z,72.20
2023-04-18T08:55:33.436Z,71.70
2023-04-18T08:58:35.065Z,71.80
2023-04-18T09:01:57.485Z,70.70
2023-04-18T09:04:59.623Z,70.50
2023-04-18T09:08:22.162Z,71.00
2023-04-18T09:11:25.970Z,70.40
2023-04-18T09:14:27.698Z,69.40
2023-04-18T09:17:38.255Z,70.00
2023-04-18T09:20:42.106Z,69.30
2023-04-18T09:23:43.767Z,69.70
2023-04-18T09:26:45.322Z,69.30
2023-04-18T09:29:49.461Z,67.90
2023-04-18T09:32:59.391Z,66.80
2023-04-18T09:36:21.620Z,66.20
2023-04-18T09:39:29.264Z,65.00
2023-04-18T09:42:36.084Z,65.10
2023-04-18T09:45:38.407Z,64.40
2023-04-18T09:48:42.902Z,65.70
2023-04-18T09:51:46.001Z,65.90
2023-04-18T09:54:49.063Z,64.80
2023-04-18T09:57:52.479Z,64.10
2023-04-18T10:00:54.636Z,65.00
2023-04-18T10:03:57.645Z,64.00
2023-04-18T10:07:00.666Z,64.00
2023-04-18T10:10:02.336Z,63.90
2023-04-18T10:13:06.628Z,63.80
2023-04-18T10:16:08.403Z,64.20
2023-04-18T10:19:27.226Z,64.00
2023-04-18T10:22:28.901Z,63.00
2023-04-18T10:25:39.641Z,63.10
2023-04-18T10:28:53.346Z,62.00
2023-04-18T10:31:55.550Z,61.20
2023-04-18T10:35:00.936Z,61.10
2023-04-18T10:38:02.522Z,60.10
2023-04-18T10:41:22.549Z,60.10
2023-04-18T10:44:24.292Z,58.90
2023-04-18T10:47:26.097Z,59.40
2023-04-18T10:50:27.747Z,59.10
2023-04-18T10:53:32.424Z,58.60
2023-04-18T10:56:34.185Z,59.30
2023-04-18T10:59:39.244Z,59.70
2023-04-18T11:02:47.887Z,59.60
2023-04-18T11:05:49.627Z,59.40
2023-04-18T11:08:51.703Z,58.90
2023-04-18T11:12:12.028Z,58.50
2023-04-18T11:15:17.725Z,57.70
2023-04-18T11:18:19.392Z,57.80
2023-04-18T11:21:20.988Z,57.40
2023-04-18T11:24:24.083Z,57.50
2023-04-18T11:27:26.875Z,57.90
2023-04-18T11:30:36.095Z,58.00
2023-04-18T11:33:37.810Z,56.00
2023-04-18T11:36:39.901Z,56.50
2023-04-18T11:39:43.330Z,56.00
2023-04-18T11:42:45.039Z,56.10
2023-04-18T11:46:00.135Z,56.90
2023-04-18T11:49:02.100Z,56.40
2023-04-18T11:52:11.404Z,56.90
2023-04-18T11:55:18.626Z,55.70
2023-04-18T11:58:36.602Z,55.50
2023-04-18T12:01:38.220Z,55.10
2023-04-18T12:05:00.166Z,54.50
2023-04-18T12:08:10.072Z,54.40
2023-04-18T12:11:20.706Z,54.30
2023-04-18T12:14:22.711Z,53.60
2023-04-18T12:17:27.136Z,52.90
2023-04-18T12:20:52.177Z,53.40
2023-04-18T12:23:53.844Z,53.70
2023-04-18T12:26:57.345Z,53.30
2023-04-18T12:29:58.943Z,53.70
2023-04-18T12:33:02.822Z,54.00
2023-04-18T12:36:05.521Z,54.20
2023-04-18T12:39:07.177Z,54.10
2023-04-18T12:42:08.763Z,54.50
2023-04-18T12:45:11.383Z,55.00
2023-04-18T12:48:13.661Z,55.30
2023-04-18T12:51:15.385Z,55.10
2023-04-18T12:54:16.996Z,55.10
2023-04-18T12:57:18.732Z,55.70
2023-04-18T13:00:23.242Z,55.60
2023-04-18T13:03:25.109Z,54.80
2023-04-18T13:06:27.032Z,54.80
2023-04-18T13:09:28.744Z,54.50
2023-04-18T13:12:30.732Z,54.70
2023-04-18T13:15:32.386Z,53.50
2023-04-18T13:18:34.053Z,53.40
2023-04-18T13:21:35.647Z,52.80
2023-04-18T13:24:37.248Z,52.80
2023-04-18T13:27:41.724Z,53.00
2023-04-18T13:30:43.682Z,53.00
2023-04-18T13:33:45.244Z,53.00
2023-04-18T13:36:46.895Z,53.50
2023-04-18T13:39:49.065Z,53.90
2023-04-18T13:42:51.356Z,54.00
2023-04-18T13:45:54.005Z,53.60
2023-04-18T13:48:55.645Z,54.10
2023-04-18T13:51:57.646Z,54.10
2023-04-18T13:54:59.258Z,54.20
2023-04-18T13:58:00.930Z,53.90
2023-04-18T14:01:02.548Z,53.30
2023-04-18T14:04:04.279Z,53.00
2023-04-18T14:07:06.328Z,52.60
2023-04-18T14:10:08.357Z,53.00
2023-04-18T14:13:09.969Z,53.10
2023-04-18T14:16:11.835Z,52.80
2023-04-18T14:19:13.815Z,53.20
2023-04-18T14:22:15.578Z,53.30
2023-04-18T14:25:17.258Z,53.20
2023-04-18T14:28:21.499Z,52.60
2023-04-18T14:31:23.198Z,52.40
2023-04-18T14:34:24.825Z,52.50
2023-04-18T14:37:26.457Z,52.50
2023-04-18T14:40:28.067Z,52.50
2023-04-18T14:43:29.675Z,51.70
2023-04-18T14:46:31.392Z,52.40
2023-04-18T14:49:33.762Z,53.10
2023-04-18T14:52:36.086Z,53.00
2023-04-18T14:55:40.626Z,54.30
2023-04-18T14:58:42.874Z,53.70
2023-04-18T15:01:44.490Z,53.60
2023-04-18T15:04:46.214Z,53.80
2023-04-18T15:07:48.001Z,53.40
2023-04-18T15:10:49.667Z,53.70
2023-04-18T15:13:51.268Z,53.10
2023-04-18T15:16:52.899Z,53.50
2023-04-18T15:19:54.491Z,53.50
2023-04-18T15:22:58.818Z,53.30
2023-04-18T15:26:00.611Z,53.30
2023-04-18T15:29:05.587Z,53.60
2023-04-18T15:32:07.378Z,52.90
2023-04-18T15:35:10.524Z,52.30
2023-04-18T15:38:12.191Z,52.50
2023-04-18T15:41:13.832Z,50.80
2023-04-18T15:44:15.531Z,51.30
2023-04-18T15:47:17.235Z,52.20
2023-04-18T15:50:18.849Z,51.90
2023-04-18T15:53:20.634Z,51.20
2023-04-18T15:56:24.859Z,51.40
2023-04-18T15:59:26.444Z,52.10
2023-04-18T16:02:28.065Z,52.10
2023-04-18T16:05:30.797Z,51.90
2023-04-18T16:08:33.376Z,52.50
2023-04-18T16:11:35.252Z,52.40
2023-04-18T16:14:36.857Z,52.70
2023-04-18T16:17:38.843Z,53.00
2023-04-18T16:20:40.488Z,52.70
2023-04-18T16:23:43.044Z,52.10
2023-04-18T16:26:44.673Z,52.60
2023-04-18T16:29:47.219Z,52.80
2023-04-18T16:32:49.122Z,52.80
2023-04-18T16:35:50.678Z,53.10
2023-04-18T16:38:52.266Z,53.20
2023-04-18T16:41:54.400Z,53.50
2023-04-18T16:44:55.947Z,53.70
2023-04-18T16:47:57.640Z,53.50
2023-04-18T16:50:59.262Z,51.80
2023-04-18T16:54:00.841Z,52.30
2023-04-18T16:57:02.720Z,52.50
2023-04-18T17:00:05.045Z,53.30
2023-04-18T17:03:12.762Z,53.70
2023-04-18T17:06:14.475Z,54.10
2023-04-18T17:09:16.289Z,54.70
2023-04-18T17:12:21.355Z,55.00
2023-04-18T17:15:23.036Z,55.20
2023-04-18T17:18:24.738Z,55.60
2023-04-18T17:21:27.343Z,56.10
2023-04-18T17:24:28.880Z,56.20
2023-04-18T17:27:30.492Z,56.50
2023-04-18T17:30:32.146Z,56.60
2023-04-18T17:33:33.780Z,56.60
2023-04-18T17:36:35.542Z,56.30
2023-04-18T17:39:37.447Z,56.40
2023-04-18T17:42:39.125Z,56.80
2023-04-18T17:45:41.668Z,57.30
2023-04-18T17:48:43.308Z,57.40
2023-04-18T17:51:44.921Z,57.60
2023-04-18T17:54:46.560Z,58.00
2023-04-18T17:57:48.108Z,58.40
2023-04-18T18:00:49.891Z,58.70
2023-04-18T18:03:53.592Z,59.00
2023-04-18T18:06:56.244Z,59.60
2023-04-18T18:09:57.981Z,60.00
2023-04-18T18:12:59.646Z,60.60
2023-04-18T18:16:04.481Z,60.80
2023-04-18T18:19:08.940Z,61.00
2023-04-18T18:22:10.994Z,61.40
2023-04-18T18:25:12.675Z,61.40
2023-04-18T18:28:14.267Z,62.00
2023-04-18T18:31:16.691Z,62.10
2023-04-18T18:34:19.793Z,62.40
2023-04-18T18:37:23.184Z,62.50
2023-04-18T18:40:24.817Z,62.60
2023-04-18T18:43:26.428Z,62.80
2023-04-18T18:46:28.084Z,62.90
2023-04-18T18:49:29.725Z,63.10
2023-04-18T18:52:32.546Z,63.40
2023-04-18T18:55:34.171Z,63.80
2023-04-18T18:58:35.883Z,64.10
2023-04-18T19:01:37.695Z,64.40
2023-04-18T19:04:39.456Z,64.60
2023-04-18T19:07:43.918Z,64.90
2023-04-18T19:10:45.526Z,65.70
2023-04-18T19:13:47.113Z,66.30
2023-04-18T19:16:48.705Z,66.60
2023-04-18T19:19:51.593Z,66.70
2023-04-18T19:22:53.156Z,66.70
2023-04-18T19:25:54.738Z,67.00
2023-04-18T19:28:56.353Z,67.30
2023-04-18T19:31:57.974Z,67.60
2023-04-18T19:34:59.720Z,67.60
2023-04-18T19:38:02.200Z,67.60
2023-04-18T19:41:03.761Z,67.90
2023-04-18T19:44:05.385Z,68.00
2023-04-18T19:47:06.980Z,68.10
2023-04-18T19:50:08.953Z,68.10
2023-04-18T19:53:11.159Z,68.40
2023-04-18T19:56:14.206Z,68.40
2023-04-18T19:59:16.035Z,68.50
2023-04-18T20:02:17.928Z,68.60
2023-04-18T20:05:19.748Z,68.60
2023-04-18T20:08:21.417Z,68.70
2023-04-18T20:11:22.969Z,68.90
2023-04-18T20:14:24.598Z,69.10
2023-04-18T20:17:26.429Z,69.20
2023-04-18T20:20:28.240Z,69.20
2023-04-18T20:23:29.856Z,69.20
2023-04-18T20:26:31.464Z,69.30
2023-04-18T20:29:33.084Z,69.50
2023-04-18T20:32:34.757Z,69.70
2023-04-18T20:35:36.546Z,69.90
2023-04-18T20:38:38.192Z,70.00
2023-04-18T20:41:51.088Z,70.20
2023-04-18T20:44:54.541Z,70.30
2023-04-18T20:47:56.866Z,70.40
2023-04-18T20:50:58.529Z,70.50
2023-04-18T20:54:00.635Z,70.60
2023-04-18T20:57:02.612Z,70.80
2023-04-18T21:00:06.974Z,70.90
2023-04-18T21:03:08.780Z,71.00
2023-04-18T21:06:10.499Z,71.00
2023-04-18T21:09:12.192Z,71.20
2023-04-18T21:12:13.958Z,71.20
2023-04-18T21:15:15.563Z,71.20
2023-04-18T21:18:18.056Z,71.30
2023-04-18T21:21:19.614Z,71.50
2023-04-18T21:24:21.189Z,71.50
2023-04-18T21:27:22.752Z,71.50
2023-04-18T21:30:24.337Z,71.70
2023-04-18T21:33:26.150Z,71.80
2023-04-18T21:36:30.559Z,71.80
2023-04-18T21:39:32.123Z,71.80
2023-04-18T21:42:35.054Z,72.00
2023-04-18T21:45:36.656Z,71.90
2023-04-18T21:48:40.663Z,72.10
2023-04-18T21:51:42.273Z,72.00
2023-04-18T21:54:43.861Z,72.30
2023-04-18T21:57:45.384Z,72.40
2023-04-18T22:00:47.026Z,72.50
2023-04-18T22:03:48.773Z,72.50
2023-04-18T22:06:50.564Z,72.60
2023-04-18T22:09:52.626Z,72.60
2023-04-18T22:12:54.210Z,72.80
2023-04-18T22:15:58.006Z,72.50
2023-04-18T22:19:01.013Z,72.90
2023-04-18T22:22:02.617Z,72.90
2023-04-18T22:25:07.081Z,73.00
2023-04-18T22:28:08.698Z,73.10
2023-04-18T22:31:10.331Z,73.10
2023-04-18T22:34:12.029Z,72.90
2023-04-18T22:37:13.602Z,72.80
2023-04-18T22:40:16.361Z,72.90
2023-04-18T22:43:22.541Z,73.10
2023-04-18T22:46:24.435Z,73.00
2023-04-18T22:49:26.162Z,73.10
2023-04-18T22:52:28.973Z,73.20
2023-04-18T22:55:30.659Z,73.00
2023-04-18T22:58:32.469Z,73.10
2023-04-18T23:01:34.217Z,72.90
2023-04-18T23:04:36.213Z,73.10
2023-04-18T23:07:37.943Z,73.10
2023-04-18T23:10:39.621Z,73.10
2023-04-18T23:13:41.408Z,73.10
2023-04-18T23:16:43.933Z,73.30
2023-04-18T23:19:45.663Z,73.10
2023-04-18T23:22:49.923Z,73.20
2023-04-18T23:25:52.114Z,73.30
2023-04-18T23:28:53.839Z,73.30
2023-04-18T23:31:55.556Z,73.10
2023-04-18T23:34:57.190Z,73.10
2023-04-18T23:37:58.803Z,73.00
2023-04-18T23:41:00.625Z,73.10
2023-04-18T23:44:02.281Z,72.80
2023-04-18T23:47:04.089Z,72.80
2023-04-18T23:50:06.375Z,72.90
2023-04-18T23:53:07.948Z,73.00
2023-04-18T23:56:09.576Z,72.90
2023-04-18T23:59:11.148Z,73.00
